Alton, Utah
Current Conditions -  °F | °C
As of 4:53 AM on Monday 22 Dec 2014 (Local Time) from KBCE Reporting Station
Few Clouds Few Clouds  
Wind Chill: -2°   Ceiling: Unl
Heat Index:   Visibility: 10mi
Dew Point: -1°   Wind: 18mph
Humidity: 76%   Direction: 290°WNW
Pressure: 30.06"   Gusts: 25mph
Location:  37.44°N, 112.48°W
Report Text: KBCE 221153Z AUTO 29016G22KT 10SM FEW022 03/M01 A3006 RMK AO2 SLP117 T00331006 10039 20011 58006
Loading
Personal Weather Stations






























Interactive Weather Map New forecast layout! Learn more

10-Day Weather Forecast

Advertisements
Track Severe Weather on mobile